Time;durP1;ratioP1;P1;durP2;ratioP2;P2;SDS_P1;SDS_P2;PMS_P1;PMS_P2;Temp;Humidity;BMP_temperature;BMP_pressure;BME280_temperature;BME280_humidity;BME280_pressure;Samples;Min_cycle;Max_cycle;Signal;HPM_P1;HPM_P2
2021/03/17 00:00:41;;;;;;;2.33;0.90;;;;;;;;;;5081648;28;20054;-63
2021/03/17 00:03:45;;;;;;;2.50;0.80;;;;;;;;;;5079811;28;20044;-63
2021/03/17 00:06:49;;;;;;;3.58;1.25;;;;;;;;;;5081513;28;20059;-63
2021/03/17 00:09:54;;;;;;;4.18;1.00;;;;;;;;;;5080687;28;20040;-63
2021/03/17 00:12:58;;;;;;;2.80;0.90;;;;;;;;;;5080347;28;20128;-61
2021/03/17 00:16:03;;;;;;;3.35;0.80;;;;;;;;;;5078577;28;20056;-63
2021/03/17 00:19:07;;;;;;;2.47;0.73;;;;;;;;;;5077101;28;20051;-62
2021/03/17 00:22:12;;;;;;;2.15;1.33;;;;;;;;;;5081198;28;20043;-62
2021/03/17 00:25:16;;;;;;;2.03;0.82;;;;;;;;;;5079494;28;20402;-63
2021/03/17 00:28:21;;;;;;;3.03;1.13;;;;;;;;;;5081044;28;20040;-63
2021/03/17 00:31:25;;;;;;;3.22;1.00;;;;;;;;;;5080636;28;20055;-63
2021/03/17 00:34:29;;;;;;;2.55;1.23;;;;;;;;;;5080380;28;20062;-63
2021/03/17 00:37:35;;;;;;;3.05;1.40;;;;;;;;;;5079855;28;20507;-63
2021/03/17 00:40:40;;;;;;;2.88;1.08;;;;;;;;;;5080005;28;20044;-63
2021/03/17 00:43:44;;;;;;;3.60;0.75;;;;;;;;;;5078636;28;20089;-63
2021/03/17 00:46:48;;;;;;;3.45;1.17;;;;;;;;;;5059332;28;20049;-63
2021/03/17 00:49:40;;;;;;;6.13;1.48;;;;;;;;;;5057734;28;20045;-63
2021/03/17 00:52:25;;;;;;;5.10;1.80;;;;;;;;;;5059473;28;20098;-63
2021/03/17 00:55:26;;;;;;;4.80;1.80;;;;;;;;;;5066410;28;20049;-64
2021/03/17 00:58:34;;;;;;;2.85;2.03;;;;;;;;;;5077747;28;20056;-62
2021/03/17 01:01:20;;;;;;;4.32;2.80;;;;;;;;;;5076601;28;20074;-63
2021/03/17 01:04:05;;;;;;;3.67;2.85;;;;;;;;;;5077603;28;20041;-63
2021/03/17 01:06:51;;;;;;;4.80;2.28;;;;;;;;;;5076839;28;20568;-63
2021/03/17 01:09:36;;;;;;;3.85;2.28;;;;;;;;;;5077082;28;20059;-63
2021/03/17 01:12:21;;;;;;;5.97;2.38;;;;;;;;;;5078248;28;20415;-63
2021/03/17 01:15:07;;;;;;;3.88;2.78;;;;;;;;;;5076913;28;20059;-61
2021/03/17 01:17:52;;;;;;;4.65;2.40;;;;;;;;;;5056618;28;20044;-62
2021/03/17 01:20:38;;;;;;;7.68;2.72;;;;;;;;;;5056586;28;20087;-63
2021/03/17 01:23:23;;;;;;;6.47;2.28;;;;;;;;;;5058699;28;20072;-62
2021/03/17 01:26:09;;;;;;;3.75;1.88;;;;;;;;;;5062457;28;20132;-62
2021/03/17 01:28:54;;;;;;;3.42;1.73;;;;;;;;;;5079902;28;20048;-63
2021/03/17 01:31:40;;;;;;;4.55;1.58;;;;;;;;;;5082172;28;20144;-63
2021/03/17 01:34:25;;;;;;;3.75;1.40;;;;;;;;;;5083074;28;20111;-62
2021/03/17 01:37:12;;;;;;;5.40;2.10;;;;;;;;;;5080789;28;20055;-63
2021/03/17 01:39:57;;;;;;;3.88;1.48;;;;;;;;;;5084400;28;20041;-62
2021/03/17 01:42:43;;;;;;;5.13;2.85;;;;;;;;;;5082894;28;20044;-63
2021/03/17 01:45:29;;;;;;;5.38;1.60;;;;;;;;;;5094984;28;20043;-63
2021/03/17 01:48:14;;;;;;;4.30;1.15;;;;;;;;;;5081720;28;20051;-63
2021/03/17 01:50:59;;;;;;;4.45;1.45;;;;;;;;;;5079309;28;20075;-62
2021/03/17 01:53:45;;;;;;;1.65;1.08;;;;;;;;;;5078506;28;20044;-63
2021/03/17 01:56:30;;;;;;;5.97;1.75;;;;;;;;;;5091089;28;20138;-61
2021/03/17 01:59:16;;;;;;;4.18;1.35;;;;;;;;;;5086476;28;20072;-62
2021/03/17 02:02:01;;;;;;;2.97;1.00;;;;;;;;;;5059393;28;20075;-63
2021/03/17 02:04:46;;;;;;;4.90;1.75;;;;;;;;;;5072154;28;20059;-63
2021/03/17 02:07:31;;;;;;;4.88;1.30;;;;;;;;;;5063556;28;20048;-64
2021/03/17 02:10:18;;;;;;;4.20;1.77;;;;;;;;;;5079927;28;20067;-64
2021/03/17 02:13:03;;;;;;;3.33;1.48;;;;;;;;;;5078635;28;20049;-63
2021/03/17 02:15:51;;;;;;;2.75;1.48;;;;;;;;;;5079221;28;20045;-63
2021/03/17 02:18:40;;;;;;;5.32;1.70;;;;;;;;;;5079806;28;20410;-62
2021/03/17 02:21:58;;;;;;;7.07;1.65;;;;;;;;;;5092631;28;20044;-62
2021/03/17 02:24:51;;;;;;;4.88;1.35;;;;;;;;;;5053172;28;20052;-63
2021/03/17 02:27:55;;;;;;;8.48;2.35;;;;;;;;;;5090644;28;20051;-62
2021/03/17 02:30:40;;;;;;;4.97;1.23;;;;;;;;;;5093023;28;20041;-63
2021/03/17 02:33:39;;;;;;;5.28;1.85;;;;;;;;;;5080334;28;20049;-63
2021/03/17 02:36:27;;;;;;;5.32;1.25;;;;;;;;;;5075946;28;20057;-63
2021/03/17 02:39:19;;;;;;;7.70;1.70;;;;;;;;;;5075909;28;20565;-62
2021/03/17 02:42:14;;;;;;;4.32;1.50;;;;;;;;;;5078319;28;20044;-63
2021/03/17 02:45:03;;;;;;;11.43;1.15;;;;;;;;;;5077940;28;20135;-63
2021/03/17 02:47:57;;;;;;;7.82;1.40;;;;;;;;;;5079378;28;20056;-63
2021/03/17 02:50:42;;;;;;;8.55;1.30;;;;;;;;;;5093100;28;20053;-63
2021/03/17 02:53:28;;;;;;;5.95;1.58;;;;;;;;;;5078688;28;20131;-63
2021/03/17 02:56:15;;;;;;;5.40;1.27;;;;;;;;;;5078067;28;20037;-63
2021/03/17 02:59:04;;;;;;;6.97;1.10;;;;;;;;;;5076863;28;20506;-63
2021/03/17 03:01:52;;;;;;;6.93;1.02;;;;;;;;;;5078492;28;20232;-62
2021/03/17 03:04:37;;;;;;;4.07;1.10;;;;;;;;;;5091777;28;20040;-63
2021/03/17 03:07:23;;;;;;;5.75;1.27;;;;;;;;;;5091189;28;20048;-64
2021/03/17 03:10:09;;;;;;;6.03;1.67;;;;;;;;;;5078310;28;20083;-64
2021/03/17 03:12:54;;;;;;;4.60;0.93;;;;;;;;;;5078076;28;20045;-63
2021/03/17 03:15:39;;;;;;;9.32;1.25;;;;;;;;;;5090031;28;20048;-62
2021/03/17 03:18:24;;;;;;;6.43;1.58;;;;;;;;;;5089112;28;20194;-63
2021/03/17 03:21:10;;;;;;;5.45;1.20;;;;;;;;;;5087802;28;20059;-63
2021/03/17 03:23:55;;;;;;;7.68;1.13;;;;;;;;;;5070734;28;20055;-63
2021/03/17 03:26:41;;;;;;;4.68;1.48;;;;;;;;;;5056840;28;20122;-64
2021/03/17 03:29:26;;;;;;;6.75;1.83;;;;;;;;;;5057069;28;20053;-63
2021/03/17 03:32:12;;;;;;;4.95;1.30;;;;;;;;;;5061090;28;20048;-63
2021/03/17 03:34:57;;;;;;;3.20;1.55;;;;;;;;;;5088407;28;20058;-63
2021/03/17 03:37:43;;;;;;;5.65;1.50;;;;;;;;;;5088672;28;20048;-63
2021/03/17 03:40:28;;;;;;;9.93;1.83;;;;;;;;;;5076065;28;20045;-62
2021/03/17 03:43:14;;;;;;;4.82;1.60;;;;;;;;;;5074970;28;20048;-63
2021/03/17 03:45:59;;;;;;;6.45;1.58;;;;;;;;;;5075737;28;20045;-63
2021/03/17 03:48:44;;;;;;;9.95;2.78;;;;;;;;;;5075834;28;20047;-63
2021/03/17 03:51:31;;;;;;;14.68;2.20;;;;;;;;;;5087596;28;20044;-62
2021/03/17 03:54:17;;;;;;;9.95;1.67;;;;;;;;;;5074243;28;20113;-62
2021/03/17 03:57:05;;;;;;;10.27;1.90;;;;;;;;;;5075433;28;20067;-63
2021/03/17 03:59:51;;;;;;;5.45;1.90;;;;;;;;;;5075408;28;20497;-64
2021/03/17 04:02:46;;;;;;;3.47;2.15;;;;;;;;;;5087015;28;20047;-62
2021/03/17 04:05:40;;;;;;;7.15;2.22;;;;;;;;;;5054962;28;20060;-63
2021/03/17 04:08:25;;;;;;;6.93;2.25;;;;;;;;;;5065465;28;20102;-64
2021/03/17 04:11:11;;;;;;;13.57;2.72;;;;;;;;;;5087749;28;20049;-64
2021/03/17 04:13:56;;;;;;;8.48;2.55;;;;;;;;;;5087421;28;20076;-62
2021/03/17 04:16:42;;;;;;;7.43;2.38;;;;;;;;;;5074825;28;20048;-63
2021/03/17 04:19:27;;;;;;;11.05;2.95;;;;;;;;;;5074355;28;20564;-63
2021/03/17 04:22:12;;;;;;;7.05;2.40;;;;;;;;;;5088016;28;20051;-63
2021/03/17 04:24:59;;;;;;;11.75;2.47;;;;;;;;;;5087549;28;20410;-63
2021/03/17 04:27:45;;;;;;;5.75;1.85;;;;;;;;;;5087505;28;20047;-61
2021/03/17 04:30:31;;;;;;;4.68;2.10;;;;;;;;;;5067107;28;20055;-62
2021/03/17 04:33:16;;;;;;;7.97;2.17;;;;;;;;;;5053808;28;20052;-63
2021/03/17 04:36:01;;;;;;;6.82;2.42;;;;;;;;;;5053636;28;20126;-63
2021/03/17 04:38:47;;;;;;;6.30;3.30;;;;;;;;;;5072009;28;20032;-62
2021/03/17 04:41:32;;;;;;;11.45;2.75;;;;;;;;;;5074257;28;20075;-63
2021/03/17 04:44:17;;;;;;;8.02;2.72;;;;;;;;;;5086472;28;20072;-62
2021/03/17 04:47:03;;;;;;;5.95;2.50;;;;;;;;;;5087328;28;20037;-63
2021/03/17 04:49:49;;;;;;;12.25;3.05;;;;;;;;;;5086011;28;20094;-64
2021/03/17 04:52:35;;;;;;;13.98;3.20;;;;;;;;;;5086931;28;20499;-63
2021/03/17 04:55:20;;;;;;;6.93;2.50;;;;;;;;;;5073317;28;20528;-63
2021/03/17 04:58:06;;;;;;;8.02;2.40;;;;;;;;;;5086595;28;20127;-63
2021/03/17 05:00:51;;;;;;;12.05;2.50;;;;;;;;;;5085850;28;20055;-62
2021/03/17 05:03:36;;;;;;;5.30;2.10;;;;;;;;;;5077910;28;20068;-63
2021/03/17 05:06:22;;;;;;;7.57;2.95;;;;;;;;;;5077514;28;20054;-63
2021/03/17 05:09:07;;;;;;;4.63;2.35;;;;;;;;;;5077387;28;20051;-64
2021/03/17 05:11:52;;;;;;;7.60;2.13;;;;;;;;;;5070613;28;20081;-64
2021/03/17 05:14:38;;;;;;;5.47;2.72;;;;;;;;;;5063338;28;20044;-63
2021/03/17 05:17:23;;;;;;;6.20;2.05;;;;;;;;;;5088687;28;20437;-63
2021/03/17 05:20:09;;;;;;;7.13;1.75;;;;;;;;;;5055287;28;20041;-63
2021/03/17 05:22:55;;;;;;;3.85;1.40;;;;;;;;;;5055070;28;20411;-62
2021/03/17 05:25:40;;;;;;;5.10;1.67;;;;;;;;;;5053780;28;20049;-63
2021/03/17 05:28:25;;;;;;;5.78;1.45;;;;;;;;;;5057468;28;20487;-62
2021/03/17 05:31:12;;;;;;;10.82;1.60;;;;;;;;;;5088088;28;20065;-63
2021/03/17 05:33:57;;;;;;;2.72;1.30;;;;;;;;;;5074920;28;20048;-62
2021/03/17 05:36:42;;;;;;;2.38;0.80;;;;;;;;;;5088050;28;20040;-62
2021/03/17 05:39:27;;;;;;;4.32;1.05;;;;;;;;;;5074102;28;20049;-62
2021/03/17 05:42:13;;;;;;;3.17;1.02;;;;;;;;;;5074874;28;20044;-63
2021/03/17 05:44:58;;;;;;;7.28;1.98;;;;;;;;;;5074720;28;20048;-63
2021/03/17 05:47:45;;;;;;;8.07;1.10;;;;;;;;;;5074694;28;20064;-63
2021/03/17 05:50:30;;;;;;;2.90;0.82;;;;;;;;;;5073202;28;20049;-62
2021/03/17 05:53:15;;;;;;;7.07;1.73;;;;;;;;;;5074744;28;20127;-62
2021/03/17 05:56:01;;;;;;;7.50;1.65;;;;;;;;;;5087417;28;20052;-63
2021/03/17 05:58:46;;;;;;;3.55;0.90;;;;;;;;;;5074604;28;20124;-64
2021/03/17 06:01:32;;;;;;;3.38;1.20;;;;;;;;;;5074152;28;20060;-62
2021/03/17 06:04:17;;;;;;;1.77;0.52;;;;;;;;;;5087504;28;20087;-63
2021/03/17 06:07:02;;;;;;;4.30;0.85;;;;;;;;;;5074399;28;20581;-62
2021/03/17 06:09:47;;;;;;;5.55;0.80;;;;;;;;;;5073364;28;20072;-62
2021/03/17 06:12:33;;;;;;;8.18;1.13;;;;;;;;;;5087155;28;20044;-62
2021/03/17 06:15:22;;;;;;;3.72;0.85;;;;;;;;;;5086189;28;20056;-61
2021/03/17 06:18:08;;;;;;;1.98;0.75;;;;;;;;;;5074288;28;20079;-62
2021/03/17 06:20:53;;;;;;;4.60;0.95;;;;;;;;;;5072530;28;20072;-62
2021/03/17 06:23:38;;;;;;;6.43;1.73;;;;;;;;;;5087050;28;20487;-62
2021/03/17 06:26:24;;;;;;;7.00;0.80;;;;;;;;;;5085704;28;20044;-62
2021/03/17 06:29:09;;;;;;;4.22;0.82;;;;;;;;;;5064615;28;20496;-63
2021/03/17 06:31:55;;;;;;;3.20;1.00;;;;;;;;;;5065358;28;20090;-64
2021/03/17 06:34:47;;;;;;;1.92;0.90;;;;;;;;;;5061383;28;20068;-62
2021/03/17 06:37:38;;;;;;;5.32;1.30;;;;;;;;;;5054029;28;20499;-62
2021/03/17 06:40:25;;;;;;;6.38;0.88;;;;;;;;;;5053449;28;20119;-65
2021/03/17 06:43:11;;;;;;;6.72;1.60;;;;;;;;;;5063917;28;20357;-62
2021/03/17 06:45:56;;;;;;;4.13;2.00;;;;;;;;;;5069458;28;20041;-62
2021/03/17 06:48:42;;;;;;;4.07;1.30;;;;;;;;;;5086639;28;20423;-62
2021/03/17 06:51:29;;;;;;;4.35;1.27;;;;;;;;;;5071752;28;20479;-62
2021/03/17 06:54:15;;;;;;;6.13;1.30;;;;;;;;;;5073062;28;20564;-62
2021/03/17 06:57:00;;;;;;;8.60;1.13;;;;;;;;;;5073337;28;20044;-62
2021/03/17 06:59:45;;;;;;;6.13;1.30;;;;;;;;;;5086451;28;20044;-62
2021/03/17 07:02:30;;;;;;;7.55;1.20;;;;;;;;;;5065597;28;20045;-62
2021/03/17 07:05:16;;;;;;;6.20;1.30;;;;;;;;;;5065948;28;20056;-62
2021/03/17 07:08:02;;;;;;;5.70;1.20;;;;;;;;;;5066069;28;20044;-62
2021/03/17 07:10:46;;;;;;;10.75;2.35;;;;;;;;;;5057492;28;20044;-65
2021/03/17 07:13:32;;;;;;;9.43;1.40;;;;;;;;;;5073151;28;20135;-63
2021/03/17 07:16:17;;;;;;;9.57;1.50;;;;;;;;;;5069727;28;20044;-62
2021/03/17 07:19:03;;;;;;;9.65;1.40;;;;;;;;;;5083714;28;20071;-63
2021/03/17 07:21:48;;;;;;;3.53;1.00;;;;;;;;;;5062962;28;20052;-62
2021/03/17 07:24:33;;;;;;;7.65;1.40;;;;;;;;;;5072258;28;20503;-62
2021/03/17 07:27:20;;;;;;;7.90;2.45;;;;;;;;;;5071893;28;20170;-62
2021/03/17 07:30:05;;;;;;;8.93;1.60;;;;;;;;;;5072658;28;20501;-62
2021/03/17 07:33:00;;;;;;;7.03;1.58;;;;;;;;;;5070712;28;20098;-64
2021/03/17 07:35:45;;;;;;;9.38;2.38;;;;;;;;;;5072395;28;20052;-62
2021/03/17 07:38:31;;;;;;;8.98;1.30;;;;;;;;;;5085007;28;20048;-63
2021/03/17 07:41:16;;;;;;;7.57;1.08;;;;;;;;;;5085548;28;20595;-62
2021/03/17 07:44:03;;;;;;;10.30;3.13;;;;;;;;;;5081247;28;20415;-62
2021/03/17 07:46:50;;;;;;;7.13;1.48;;;;;;;;;;5070559;28;20487;-62
2021/03/17 07:49:37;;;;;;;10.18;2.20;;;;;;;;;;5071194;28;20162;-62
2021/03/17 07:52:23;;;;;;;7.70;1.35;;;;;;;;;;5071264;28;20047;-62
2021/03/17 07:55:08;;;;;;;6.85;1.25;;;;;;;;;;5072020;28;20045;-62
2021/03/17 07:57:54;;;;;;;5.63;1.15;;;;;;;;;;5084403;28;20037;-62
2021/03/17 08:00:39;;;;;;;6.40;1.40;;;;;;;;;;5085526;28;20063;-63
2021/03/17 08:03:25;;;;;;;5.97;1.52;;;;;;;;;;5084079;28;20110;-63
2021/03/17 08:06:10;;;;;;;6.43;1.40;;;;;;;;;;5075919;28;20048;-64
2021/03/17 08:08:56;;;;;;;6.47;1.85;;;;;;;;;;5076249;28;20497;-62
2021/03/17 08:11:41;;;;;;;6.28;1.60;;;;;;;;;;5081862;28;20037;-64
2021/03/17 08:14:27;;;;;;;6.95;1.30;;;;;;;;;;5086269;28;20387;-63
2021/03/17 08:17:13;;;;;;;4.18;0.95;;;;;;;;;;5080105;28;20128;-63
2021/03/17 08:20:17;;;;;;;8.80;1.73;;;;;;;;;;5079338;28;20052;-64
2021/03/17 08:23:03;;;;;;;5.18;1.58;;;;;;;;;;5078286;28;20135;-64
2021/03/17 08:25:49;;;;;;;5.80;1.35;;;;;;;;;;5075554;28;20082;-63
2021/03/17 08:28:46;;;;;;;9.13;1.38;;;;;;;;;;5078123;28;20074;-64
2021/03/17 08:31:50;;;;;;;7.72;1.33;;;;;;;;;;5092785;28;20049;-64
2021/03/17 08:34:36;;;;;;;7.15;1.52;;;;;;;;;;5076463;28;20044;-63
2021/03/17 08:37:21;;;;;;;6.03;1.05;;;;;;;;;;5060664;28;20053;-64
2021/03/17 08:40:07;;;;;;;4.75;1.23;;;;;;;;;;5064423;28;20045;-63
2021/03/17 08:42:52;;;;;;;7.22;1.13;;;;;;;;;;5069618;28;20080;-63
2021/03/17 08:45:43;;;;;;;3.92;0.90;;;;;;;;;;5087993;28;20392;-63
2021/03/17 08:48:55;;;;;;;7.80;1.30;;;;;;;;;;5074829;28;20055;-63
2021/03/17 08:51:46;;;;;;;5.03;0.98;;;;;;;;;;5071684;28;20044;-63
2021/03/17 08:54:31;;;;;;;9.02;1.42;;;;;;;;;;5073053;28;20045;-64
2021/03/17 08:57:17;;;;;;;6.95;1.48;;;;;;;;;;5068605;28;20045;-63
2021/03/17 09:00:02;;;;;;;8.60;1.77;;;;;;;;;;5071858;28;20041;-63
2021/03/17 09:02:47;;;;;;;18.65;1.63;;;;;;;;;;5068927;28;20108;-63
2021/03/17 09:05:33;;;;;;;6.30;1.10;;;;;;;;;;5075102;28;20055;-63
2021/03/17 09:08:18;;;;;;;6.93;1.13;;;;;;;;;;5074542;28;20402;-63
2021/03/17 09:11:04;;;;;;;6.60;1.33;;;;;;;;;;5070371;28;20037;-64
2021/03/17 09:13:49;;;;;;;6.20;1.80;;;;;;;;;;5082729;28;20052;-63
2021/03/17 09:16:35;;;;;;;8.25;1.30;;;;;;;;;;5075883;28;20094;-63
2021/03/17 09:19:21;;;;;;;9.00;1.60;;;;;;;;;;5075655;28;20045;-63
2021/03/17 09:22:10;;;;;;;8.70;1.58;;;;;;;;;;5076483;28;20053;-64
2021/03/17 09:24:56;;;;;;;6.55;1.60;;;;;;;;;;5089354;28;20036;-63
2021/03/17 09:27:48;;;;;;;8.18;1.58;;;;;;;;;;5088713;28;20049;-63
2021/03/17 09:30:37;;;;;;;9.63;2.13;;;;;;;;;;5063126;28;20417;-63
2021/03/17 09:33:26;;;;;;;6.47;1.00;;;;;;;;;;5078169;28;20048;-61
2021/03/17 09:36:12;;;;;;;3.03;0.60;;;;;;;;;;5073481;28;20037;-62
2021/03/17 09:38:57;;;;;;;6.65;1.30;;;;;;;;;;5088096;28;20502;-63
2021/03/17 09:41:47;;;;;;;6.85;1.48;;;;;;;;;;5072836;28;20044;-63
2021/03/17 09:44:32;;;;;;;4.78;1.00;;;;;;;;;;5074224;28;20055;-64
2021/03/17 09:47:17;;;;;;;6.40;1.50;;;;;;;;;;5073853;28;20040;-63
2021/03/17 09:50:02;;;;;;;3.97;1.27;;;;;;;;;;5071245;28;20037;-63
2021/03/17 09:52:48;;;;;;;7.82;1.00;;;;;;;;;;5074765;28;20049;-63
2021/03/17 09:55:34;;;;;;;3.67;1.30;;;;;;;;;;5073069;28;20041;-62
2021/03/17 09:58:19;;;;;;;9.10;2.83;;;;;;;;;;5074013;28;20365;-62
2021/03/17 10:01:08;;;;;;;2.63;0.73;;;;;;;;;;5074867;28;20053;-63
2021/03/17 10:03:53;;;;;;;11.38;1.67;;;;;;;;;;5070838;28;20322;-62
2021/03/17 10:06:39;;;;;;;8.95;1.80;;;;;;;;;;5054346;28;20045;-63
2021/03/17 10:09:28;;;;;;;3.72;0.80;;;;;;;;;;5058365;28;20056;-63
2021/03/17 10:12:15;;;;;;;4.32;0.95;;;;;;;;;;5074248;28;20044;-63
2021/03/17 10:15:02;;;;;;;3.78;1.08;;;;;;;;;;5070971;28;20044;-63
2021/03/17 10:17:47;;;;;;;2.95;0.90;;;;;;;;;;5074256;28;20059;-62
2021/03/17 10:20:33;;;;;;;2.80;0.60;;;;;;;;;;5073124;28;20040;-63
2021/03/17 10:23:18;;;;;;;3.83;1.02;;;;;;;;;;5071682;28;20079;-62
2021/03/17 10:26:03;;;;;;;4.80;1.27;;;;;;;;;;5072456;28;20045;-62
2021/03/17 10:28:49;;;;;;;6.85;1.08;;;;;;;;;;5073969;28;20495;-62
2021/03/17 10:31:34;;;;;;;3.95;1.58;;;;;;;;;;5086114;28;20078;-62
2021/03/17 10:34:21;;;;;;;4.47;1.15;;;;;;;;;;5071772;28;20114;-63
2021/03/17 10:37:10;;;;;;;4.72;0.98;;;;;;;;;;5071544;28;20047;-63
2021/03/17 10:39:56;;;;;;;2.13;0.75;;;;;;;;;;5073878;28;20053;-62
2021/03/17 10:42:45;;;;;;;5.38;1.00;;;;;;;;;;5085795;28;20048;-62
2021/03/17 10:45:31;;;;;;;5.65;1.00;;;;;;;;;;5073384;28;20137;-63
2021/03/17 10:48:20;;;;;;;6.05;0.93;;;;;;;;;;5071715;28;20325;-63
2021/03/17 10:51:06;;;;;;;3.95;0.93;;;;;;;;;;5072101;28;20049;-63
2021/03/17 10:53:52;;;;;;;4.95;1.48;;;;;;;;;;5070803;28;20507;-63
2021/03/17 10:56:37;;;;;;;3.63;1.10;;;;;;;;;;5071489;28;20052;-63
2021/03/17 10:59:26;;;;;;;2.33;1.00;;;;;;;;;;5073077;28;20059;-63
2021/03/17 11:02:19;;;;;;;11.38;2.67;;;;;;;;;;5072891;28;20487;-63
2021/03/17 11:05:04;;;;;;;;;;;;;;;;;;5071452;28;20048;-63
2021/03/17 11:08:09;;;;;;;8.73;1.13;;;;;;;;;;5072992;28;20374;-63
2021/03/17 11:10:54;;;;;;;8.25;1.02;;;;;;;;;;5070964;28;20053;-63
2021/03/17 11:13:49;;;;;;;5.53;1.90;;;;;;;;;;5072865;28;20517;-63
2021/03/17 11:16:37;;;;;;;6.53;1.05;;;;;;;;;;5069800;28;20141;-63
2021/03/17 11:19:23;;;;;;;6.68;1.00;;;;;;;;;;5072083;28;20052;-63
2021/03/17 11:22:08;;;;;;;8.85;1.52;;;;;;;;;;5085910;28;20490;-63
2021/03/17 11:25:04;;;;;;;6.05;1.00;;;;;;;;;;5068687;28;20044;-63
2021/03/17 11:27:49;;;;;;;5.10;1.10;;;;;;;;;;5052809;28;20056;-63
2021/03/17 11:30:40;;;;;;;4.32;1.02;;;;;;;;;;5070275;28;20090;-63
2021/03/17 11:33:26;;;;;;;7.85;1.20;;;;;;;;;;5071369;28;20052;-62
2021/03/17 11:36:11;;;;;;;4.63;0.90;;;;;;;;;;5067516;28;20101;-63
2021/03/17 11:39:00;;;;;;;4.10;1.33;;;;;;;;;;5072974;28;20053;-63
2021/03/17 11:41:46;;;;;;;4.55;0.98;;;;;;;;;;5069981;28;20052;-63
2021/03/17 11:44:31;;;;;;;3.22;1.05;;;;;;;;;;5070513;28;20041;-63
2021/03/17 11:47:16;;;;;;;9.38;1.27;;;;;;;;;;5072330;28;20045;-63
2021/03/17 11:50:01;;;;;;;9.80;1.77;;;;;;;;;;5070737;28;20291;-63
2021/03/17 11:52:47;;;;;;;7.07;0.70;;;;;;;;;;5072372;28;20127;-63
2021/03/17 11:55:32;;;;;;;7.40;1.13;;;;;;;;;;5068352;28;20049;-63
2021/03/17 11:58:17;;;;;;;4.10;0.77;;;;;;;;;;5072409;28;20135;-63
2021/03/17 12:01:03;;;;;;;2.95;1.02;;;;;;;;;;5069766;28;20041;-63
2021/03/17 12:03:48;;;;;;;5.22;0.90;;;;;;;;;;5070956;28;20041;-63
2021/03/17 12:06:33;;;;;;;3.53;0.90;;;;;;;;;;5071151;28;20119;-63
2021/03/17 12:09:19;;;;;;;6.70;0.85;;;;;;;;;;5072040;28;20036;-63
2021/03/17 12:12:04;;;;;;;6.63;1.42;;;;;;;;;;5071291;28;20041;-63
2021/03/17 12:14:49;;;;;;;3.83;0.80;;;;;;;;;;5069623;28;20228;-62
2021/03/17 12:17:35;;;;;;;2.65;0.65;;;;;;;;;;5070419;28;20056;-63
2021/03/17 12:20:21;;;;;;;5.18;0.80;;;;;;;;;;5070785;28;20045;-63
2021/03/17 12:23:06;;;;;;;5.07;0.90;;;;;;;;;;5052089;28;20079;-62
2021/03/17 12:25:51;;;;;;;3.05;0.75;;;;;;;;;;5055603;28;20049;-63
2021/03/17 12:28:37;;;;;;;5.40;1.38;;;;;;;;;;5069829;28;20052;-63
2021/03/17 12:31:24;;;;;;;7.47;1.27;;;;;;;;;;5072005;28;20055;-63
2021/03/17 12:34:09;;;;;;;2.78;0.57;;;;;;;;;;5069627;28;20199;-63
2021/03/17 12:36:55;;;;;;;5.25;1.02;;;;;;;;;;5071270;28;20048;-64
2021/03/17 12:39:42;;;;;;;4.40;0.88;;;;;;;;;;5072437;28;20041;-63
2021/03/17 12:42:27;;;;;;;3.20;0.60;;;;;;;;;;5073025;28;20782;-63
2021/03/17 12:45:13;;;;;;;3.97;0.60;;;;;;;;;;5070296;28;20040;-63
2021/03/17 12:47:58;;;;;;;3.85;0.50;;;;;;;;;;5070089;28;20044;-64
2021/03/17 12:50:43;;;;;;;2.80;1.10;;;;;;;;;;5069385;28;20037;-64
2021/03/17 12:53:29;;;;;;;6.47;1.42;;;;;;;;;;5070194;28;20048;-64
2021/03/17 12:56:14;;;;;;;3.67;0.63;;;;;;;;;;5070914;28;20044;-63
2021/03/17 12:59:00;;;;;;;3.65;0.50;;;;;;;;;;5070309;28;20442;-63
2021/03/17 13:01:46;;;;;;;6.00;1.13;;;;;;;;;;5070043;28;20127;-64
2021/03/17 13:04:31;;;;;;;4.90;0.60;;;;;;;;;;5069981;28;20104;-63
2021/03/17 13:07:18;;;;;;;3.63;0.57;;;;;;;;;;5070044;28;20053;-64
2021/03/17 13:10:04;;;;;;;1.73;0.55;;;;;;;;;;5071352;28;20051;-63
2021/03/17 13:12:50;;;;;;;5.40;0.90;;;;;;;;;;5070555;28;20068;-63
2021/03/17 13:15:35;;;;;;;5.38;0.77;;;;;;;;;;5081290;28;20056;-64
2021/03/17 13:18:20;;;;;;;9.93;1.25;;;;;;;;;;5070357;28;20053;-63
2021/03/17 13:21:05;;;;;;;9.75;0.85;;;;;;;;;;5071372;28;20403;-63
2021/03/17 13:23:51;;;;;;;6.22;0.82;;;;;;;;;;5072691;28;20044;-63
2021/03/17 13:26:37;;;;;;;5.35;0.88;;;;;;;;;;5054937;28;20116;-63
2021/03/17 13:29:22;;;;;;;7.13;1.17;;;;;;;;;;5066637;28;20048;-64
2021/03/17 13:32:08;;;;;;;2.05;0.60;;;;;;;;;;5074375;28;20045;-62
2021/03/17 13:34:53;;;;;;;9.30;1.88;;;;;;;;;;5070133;28;20040;-63
2021/03/17 13:37:39;;;;;;;4.13;1.05;;;;;;;;;;5073444;28;20044;-63
2021/03/17 13:40:24;;;;;;;9.23;1.88;;;;;;;;;;5072404;28;20048;-64
2021/03/17 13:43:10;;;;;;;3.65;0.88;;;;;;;;;;5074167;28;20460;-63
2021/03/17 13:45:55;;;;;;;9.70;0.98;;;;;;;;;;5072725;28;20052;-63
2021/03/17 13:48:40;;;;;;;4.97;0.70;;;;;;;;;;5074725;28;20048;-63
2021/03/17 13:51:27;;;;;;;4.68;0.95;;;;;;;;;;5073561;28;20044;-63
2021/03/17 13:54:12;;;;;;;1.70;0.60;;;;;;;;;;5073104;28;20052;-63
2021/03/17 13:56:58;;;;;;;4.05;0.52;;;;;;;;;;5072754;28;20048;-63
2021/03/17 13:59:43;;;;;;;4.13;1.05;;;;;;;;;;5074609;28;20037;-63
2021/03/17 14:02:29;;;;;;;10.98;1.50;;;;;;;;;;5070104;28;20862;-63
2021/03/17 14:05:14;;;;;;;3.88;0.85;;;;;;;;;;5069712;28;20483;-63
2021/03/17 14:08:00;;;;;;;5.13;1.13;;;;;;;;;;5073894;28;20483;-63
2021/03/17 14:10:45;;;;;;;5.15;0.95;;;;;;;;;;5066391;28;20048;-63
2021/03/17 14:13:31;;;;;;;6.72;1.48;;;;;;;;;;5068536;28;20044;-65
2021/03/17 14:16:17;;;;;;;4.93;0.90;;;;;;;;;;5063710;28;20037;-63
2021/03/17 14:19:03;;;;;;;5.15;0.93;;;;;;;;;;5085834;28;20491;-63
2021/03/17 14:21:48;;;;;;;4.90;1.15;;;;;;;;;;5058573;28;20103;-63
2021/03/17 14:24:33;;;;;;;8.57;1.27;;;;;;;;;;5073295;28;20048;-63
2021/03/17 14:27:18;;;;;;;3.85;0.90;;;;;;;;;;5072506;28;20487;-63
2021/03/17 14:30:05;;;;;;;6.85;2.35;;;;;;;;;;5071994;28;20445;-64
2021/03/17 14:32:50;;;;;;;4.78;0.85;;;;;;;;;;5071512;28;20052;-63
2021/03/17 14:35:36;;;;;;;4.22;0.80;;;;;;;;;;5055873;28;20056;-64
2021/03/17 14:38:22;;;;;;;4.18;1.15;;;;;;;;;;5072974;28;20044;-63
2021/03/17 14:41:07;;;;;;;8.75;1.20;;;;;;;;;;5072187;28;20487;-63
2021/03/17 14:43:52;;;;;;;6.40;1.52;;;;;;;;;;5071229;28;20388;-63
2021/03/17 14:46:37;;;;;;;6.22;1.35;;;;;;;;;;5073068;28;20040;-63
2021/03/17 14:49:23;;;;;;;6.57;0.80;;;;;;;;;;5071623;28;20074;-63
2021/03/17 14:52:08;;;;;;;3.80;0.90;;;;;;;;;;5070796;28;20045;-63
2021/03/17 14:54:53;;;;;;;5.20;0.52;;;;;;;;;;5071277;28;20471;-63
2021/03/17 14:57:39;;;;;;;4.30;0.95;;;;;;;;;;5057885;28;20060;-64
2021/03/17 15:00:25;;;;;;;6.30;0.73;;;;;;;;;;5070971;28;20044;-63
2021/03/17 15:03:10;;;;;;;3.65;0.60;;;;;;;;;;5072535;28;20043;-63
2021/03/17 15:05:55;;;;;;;3.08;0.60;;;;;;;;;;5071738;28;20037;-63
2021/03/17 15:08:41;;;;;;;2.03;0.93;;;;;;;;;;5071817;28;20481;-64
2021/03/17 15:11:26;;;;;;;3.05;1.30;;;;;;;;;;5071255;28;20044;-64
2021/03/17 15:14:11;;;;;;;4.43;1.20;;;;;;;;;;5073474;28;20044;-64
2021/03/17 15:16:57;;;;;;;2.63;0.75;;;;;;;;;;5069423;28;20123;-64
2021/03/17 15:19:42;;;;;;;5.82;1.35;;;;;;;;;;5061944;28;20049;-64
2021/03/17 15:22:28;;;;;;;3.95;0.70;;;;;;;;;;5064105;28;20036;-64
2021/03/17 15:25:14;;;;;;;2.58;0.60;;;;;;;;;;5070227;28;20051;-65
2021/03/17 15:27:59;;;;;;;6.13;0.77;;;;;;;;;;5074963;28;20086;-64
2021/03/17 15:30:45;;;;;;;0.82;0.50;;;;;;;;;;5066157;28;20037;-64
2021/03/17 15:33:30;;;;;;;7.45;1.77;;;;;;;;;;5057509;28;20483;-64
2021/03/17 15:36:15;;;;;;;1.70;0.60;;;;;;;;;;5071871;28;20422;-64
2021/03/17 15:39:01;;;;;;;5.28;0.82;;;;;;;;;;5069254;28;20044;-64
2021/03/17 15:41:46;;;;;;;3.22;1.20;;;;;;;;;;5069988;28;20471;-64
2021/03/17 15:44:32;;;;;;;4.68;0.68;;;;;;;;;;5069198;28;20044;-64
2021/03/17 15:47:17;;;;;;;2.80;0.52;;;;;;;;;;5070048;28;20079;-63
2021/03/17 15:50:06;;;;;;;2.45;0.90;;;;;;;;;;5071047;28;20040;-64
2021/03/17 15:52:51;;;;;;;4.22;0.88;;;;;;;;;;5068475;28;20410;-64
2021/03/17 15:55:37;;;;;;;3.53;0.57;;;;;;;;;;5069387;28;20052;-64
2021/03/17 15:58:22;;;;;;;4.30;0.73;;;;;;;;;;5069975;28;20052;-64
2021/03/17 16:01:08;;;;;;;4.78;1.08;;;;;;;;;;5065761;28;20040;-63
2021/03/17 16:03:53;;;;;;;7.53;0.88;;;;;;;;;;5061441;28;20572;-64
2021/03/17 16:06:39;;;;;;;3.70;0.93;;;;;;;;;;5064137;28;20056;-63
2021/03/17 16:09:24;;;;;;;2.78;0.82;;;;;;;;;;5069600;28;20048;-64
2021/03/17 16:12:09;;;;;;;4.05;0.80;;;;;;;;;;5070448;28;20036;-63
2021/03/17 16:14:55;;;;;;;5.05;0.90;;;;;;;;;;5068242;28;20091;-64
2021/03/17 16:17:40;;;;;;;6.60;1.20;;;;;;;;;;5071165;28;20057;-63
2021/03/17 16:20:26;;;;;;;8.07;1.58;;;;;;;;;;5068342;28;20644;-63
2021/03/17 16:23:12;;;;;;;4.47;0.85;;;;;;;;;;5071206;28;20407;-64
2021/03/17 16:25:57;;;;;;;5.93;0.98;;;;;;;;;;5071403;28;20044;-63
2021/03/17 16:28:42;;;;;;;3.40;0.95;;;;;;;;;;5069858;28;20040;-65
2021/03/17 16:31:28;;;;;;;6.47;0.63;;;;;;;;;;5051173;28;20049;-63
2021/03/17 16:34:13;;;;;;;5.85;1.52;;;;;;;;;;5068114;28;20045;-63
2021/03/17 16:36:58;;;;;;;2.90;1.08;;;;;;;;;;5071295;28;20045;-63
2021/03/17 16:39:44;;;;;;;5.55;1.00;;;;;;;;;;5068803;28;20110;-64
2021/03/17 16:42:29;;;;;;;8.15;1.02;;;;;;;;;;5071614;28;20045;-63